createdAt,value
2023-10-20T00:02:54.550Z,8.7
2023-10-20T00:08:46.408Z,8.6
2023-10-20T00:14:38.278Z,8.6
2023-10-20T00:20:29.776Z,8.6
2023-10-20T00:26:21.490Z,8.5
2023-10-20T00:32:13.982Z,8.4
2023-10-20T00:38:05.533Z,8.4
2023-10-20T00:43:57.345Z,8.4
2023-10-20T00:49:50.410Z,8.3
2023-10-20T00:55:42.869Z,8.3
2023-10-20T01:01:34.615Z,8.3
2023-10-20T01:07:27.913Z,8.2
2023-10-20T01:13:20.027Z,8.1
2023-10-20T01:19:11.826Z,8.1
2023-10-20T01:25:04.247Z,8
2023-10-20T01:30:55.344Z,8
2023-10-20T01:36:47.365Z,7.9
2023-10-20T01:42:38.954Z,7.8
2023-10-20T01:48:32.155Z,7.8
2023-10-20T01:54:24.335Z,7.7
2023-10-20T02:00:15.820Z,7.6
2023-10-20T02:06:09.250Z,7.4
2023-10-20T02:11:45.789Z,7.4
2023-10-20T02:17:38.903Z,7.3
2023-10-20T02:23:31.231Z,7.1
2023-10-20T02:29:22.679Z,7
2023-10-20T02:35:15.654Z,6.9
2023-10-20T02:41:07.047Z,6.8
2023-10-20T02:46:58.466Z,6.7
2023-10-20T02:52:51.369Z,6.6
2023-10-20T02:58:43.163Z,6.5
2023-10-20T03:04:36.592Z,6.4
2023-10-20T03:10:28.992Z,6.3
2023-10-20T03:16:20.551Z,6.2
2023-10-20T03:22:12.132Z,6.1
2023-10-20T03:28:07.570Z,6
2023-10-20T03:33:59.703Z,5.9
2023-10-20T03:39:52.372Z,5.8
2023-10-20T03:45:44.016Z,5.8
2023-10-20T03:51:36.879Z,5.7
2023-10-20T03:57:28.403Z,5.6
2023-10-20T04:03:21.514Z,5.6
2023-10-20T04:08:58.124Z,5.6
2023-10-20T04:14:34.639Z,5.4
2023-10-20T04:20:14.220Z,5.4
2023-10-20T04:25:50.377Z,5.3
2023-10-20T04:31:26.671Z,5.3
2023-10-20T04:37:04.256Z,5.3
2023-10-20T04:42:41.565Z,5.3
2023-10-20T04:48:18.998Z,5.2
2023-10-20T04:53:56.388Z,5.3
2023-10-20T04:59:18.169Z,5.3
2023-10-20T05:04:57.876Z,5.3
2023-10-20T05:10:34.337Z,5.3
2023-10-20T05:16:10.205Z,5.4
2023-10-20T05:21:46.638Z,5.4
2023-10-20T05:27:22.626Z,5.6
2023-10-20T05:33:01.616Z,5.9
2023-10-20T05:38:22.529Z,6.3
2023-10-20T05:43:43.454Z,6.8
2023-10-20T05:49:05.159Z,7.4
2023-10-20T05:54:26.254Z,8.3
2023-10-20T05:59:47.268Z,9.3
2023-10-20T06:05:40.581Z,10.5
2023-10-20T06:11:02.159Z,11.8
2023-10-20T06:16:22.768Z,10.4
2023-10-20T06:22:13.530Z,34.1
2023-10-20T06:27:34.320Z,32.4
2023-10-20T06:32:56.402Z,31.8
2023-10-20T06:38:33.462Z,41.1
2023-10-20T06:44:10.334Z,41.2
2023-10-20T06:49:47.996Z,41.6
2023-10-20T06:56:35.433Z,42.2
2023-10-20T07:02:27.399Z,42
2023-10-20T07:08:19.702Z,41.8
2023-10-20T07:14:16.121Z,41.8
2023-10-20T07:20:09.302Z,41.5
2023-10-20T07:26:03.750Z,41.3
2023-10-20T07:32:02.240Z,41.1
2023-10-20T07:37:55.339Z,40.9
2023-10-20T07:43:47.988Z,40.8
2023-10-20T07:49:41.995Z,41.8
2023-10-20T07:55:18.584Z,42.6
2023-10-20T08:01:12.737Z,43.4
2023-10-20T08:07:13.621Z,43.3
2023-10-20T08:13:08.278Z,43.6
2023-10-20T08:19:01.600Z,43.9
2023-10-20T08:24:54.375Z,44.5
2023-10-20T08:30:46.941Z,45.3
2023-10-20T08:36:40.282Z,46.3
2023-10-20T08:42:55.751Z,47.4
2023-10-20T08:48:17.974Z,48.3
2023-10-20T08:53:58.488Z,49
2023-10-20T08:59:54.740Z,50.1
2023-10-20T09:06:05.431Z,51.1
2023-10-20T09:12:01.201Z,52.2
2023-10-20T09:17:56.650Z,53.2
2023-10-20T09:23:51.464Z,54.1
2023-10-20T09:29:16.798Z,54.9
2023-10-20T09:35:15.507Z,55.8
2023-10-20T09:40:51.188Z,56.3
2023-10-20T09:46:54.898Z,56.3
2023-10-20T09:52:54.513Z,56.6
2023-10-20T09:58:49.896Z,56.5
2023-10-20T10:04:44.520Z,56.8
2023-10-20T10:10:37.892Z,56.7
2023-10-20T10:16:30.278Z,56
2023-10-20T10:22:25.103Z,55.5
2023-10-20T10:28:31.429Z,55.6
2023-10-20T10:34:43.613Z,56.9
2023-10-20T10:40:39.150Z,57.6
2023-10-20T10:46:35.556Z,58
2023-10-20T10:52:35.019Z,58.4
2023-10-20T10:58:32.403Z,58.8
2023-10-20T11:04:27.571Z,59.1
2023-10-20T11:10:22.836Z,59.3
2023-10-20T11:16:17.070Z,59.5
2023-10-20T11:22:14.572Z,59.8
2023-10-20T11:28:08.607Z,60.1
2023-10-20T11:34:12.683Z,60.3
2023-10-20T11:40:04.918Z,59.9
2023-10-20T11:45:56.028Z,60
2023-10-20T11:51:52.298Z,60.3
2023-10-20T11:57:46.857Z,60.4
2023-10-20T12:03:39.067Z,60.5
2023-10-20T12:09:31.747Z,60.6
2023-10-20T12:15:08.182Z,60.6
2023-10-20T12:21:00.888Z,60.5
2023-10-20T12:26:37.576Z,60.4
2023-10-20T12:32:32.999Z,60.4
2023-10-20T12:38:26.439Z,60.4
2023-10-20T12:44:18.240Z,60.3
2023-10-20T12:49:56.871Z,60.2
2023-10-20T12:55:33.381Z,59.8
2023-10-20T13:01:10.182Z,59.5
2023-10-20T13:07:00.278Z,59.4
2023-10-20T13:12:37.562Z,55.7
2023-10-20T13:18:32.586Z,48.8
2023-10-20T13:24:09.290Z,45.4
2023-10-20T13:30:00.827Z,45.6
2023-10-20T13:35:57.561Z,46.3
2023-10-20T13:42:07.898Z,46.6
2023-10-20T13:48:00.355Z,46.9
2023-10-20T13:53:53.800Z,47
2023-10-20T13:59:45.456Z,46.9
2023-10-20T14:05:25.396Z,46.7
2023-10-20T14:11:02.089Z,46.5
2023-10-20T14:16:38.106Z,46.1
2023-10-20T14:22:14.318Z,45.5
2023-10-20T14:27:50.546Z,43.9
2023-10-20T14:33:26.842Z,43.6
2023-10-20T14:39:02.813Z,43.3
2023-10-20T14:44:42.538Z,42.7
2023-10-20T14:50:19.536Z,42.4
2023-10-20T14:56:10.626Z,42.1
2023-10-20T15:01:48.211Z,41.7
2023-10-20T15:07:58.595Z,41.3
2023-10-20T15:13:51.577Z,40.9
2023-10-20T15:19:47.656Z,40
2023-10-20T15:25:50.870Z,39.2
2023-10-20T15:31:44.513Z,38.8
2023-10-20T15:37:37.066Z,38.4
2023-10-20T15:43:57.908Z,38
2023-10-20T15:49:50.578Z,37.6
2023-10-20T15:55:41.880Z,37.3
2023-10-20T16:01:34.353Z,36.9
2023-10-20T16:07:30.117Z,36.5
2023-10-20T16:13:06.257Z,36.1
2023-10-20T16:18:58.175Z,35.8
2023-10-20T16:24:49.293Z,35.3
2023-10-20T16:30:43.311Z,34.7
2023-10-20T16:36:35.884Z,34.3
2023-10-20T16:42:26.836Z,34.1
2023-10-20T16:47:47.947Z,33.8
2023-10-20T16:53:39.608Z,33.6
2023-10-20T16:59:30.426Z,33.3
2023-10-20T17:05:23.886Z,33
2023-10-20T17:11:02.641Z,32.8
2023-10-20T17:16:55.890Z,32.6
2023-10-20T17:22:48.487Z,32.3
2023-10-20T17:28:40.196Z,32.1
2023-10-20T17:34:32.875Z,31.9
2023-10-20T17:40:25.736Z,31.5
2023-10-20T17:46:21.129Z,31.3
2023-10-20T17:52:12.910Z,31.1
2023-10-20T17:58:06.204Z,30.9
2023-10-20T18:04:03.890Z,30.7
2023-10-20T18:10:01.380Z,30.6
2023-10-20T18:15:54.995Z,30.3
2023-10-20T18:21:49.572Z,30
2023-10-20T18:27:45.286Z,29.7
2023-10-20T18:33:39.029Z,29.3
2023-10-20T18:39:31.215Z,29.1
2023-10-20T18:45:09.552Z,28.9
2023-10-20T18:51:04.811Z,28.8
2023-10-20T18:56:57.841Z,28.4
2023-10-20T19:02:51.911Z,28.3
2023-10-20T19:08:30.110Z,28.2
2023-10-20T19:14:25.992Z,28.1
2023-10-20T19:20:21.390Z,27.9
2023-10-20T19:26:18.515Z,27.7
2023-10-20T19:32:10.852Z,27.4
2023-10-20T19:38:04.545Z,27.2
2023-10-20T19:43:57.849Z,27
2023-10-20T19:49:52.159Z,26.8
2023-10-20T19:55:43.709Z,26.6
2023-10-20T20:01:37.505Z,25.9
2023-10-20T20:07:32.334Z,25.1
2023-10-20T20:13:23.868Z,24.4
2023-10-20T20:19:05.674Z,23.8
2023-10-20T20:24:41.862Z,23.3
2023-10-20T20:30:34.153Z,22.6
2023-10-20T20:36:26.595Z,21.9
2023-10-20T20:42:19.091Z,21.4
2023-10-20T20:48:12.057Z,20.8
2023-10-20T20:53:56.904Z,20.3
2023-10-20T20:59:49.248Z,19.8
2023-10-20T21:05:30.639Z,19.4
2023-10-20T21:11:05.851Z,18.9
2023-10-20T21:16:57.883Z,18.6
2023-10-20T21:22:35.502Z,18.1
2023-10-20T21:28:11.145Z,17.8
2023-10-20T21:33:47.538Z,17.6
2023-10-20T21:39:40.600Z,17.3
2023-10-20T21:45:16.751Z,17.1
2023-10-20T21:56:29.291Z,16.9
2023-10-20T22:02:18.450Z,16.8
2023-10-20T22:08:11.755Z,16.6
2023-10-20T22:14:14.272Z,16.5
2023-10-20T22:19:51.125Z,16.3
2023-10-20T22:25:42.834Z,16.2
2023-10-20T22:31:37.465Z,16.1
2023-10-20T22:37:14.000Z,15.9
2023-10-20T22:43:06.513Z,15.8
2023-10-20T22:48:44.153Z,15.7
2023-10-20T22:54:37.994Z,15.6
2023-10-20T22:59:59.725Z,15.6
2023-10-20T23:05:37.285Z,15.5
2023-10-20T23:11:14.063Z,15.4
2023-10-20T23:17:05.842Z,15.3
2023-10-20T23:22:27.121Z,15.2
2023-10-20T23:27:47.357Z,15.1
2023-10-20T23:33:08.409Z,15.1
2023-10-20T23:39:00.931Z,15.1
2023-10-20T23:44:37.742Z,15
2023-10-20T23:50:15.043Z,15
2023-10-20T23:55:51.070Z,14.9
